createdAt,value
2018-07-26T00:01:22.638Z,21.95
2018-07-26T00:03:50.772Z,21.91
2018-07-26T00:06:18.864Z,21.87
2018-07-26T00:08:46.959Z,21.72
2018-07-26T00:11:15.035Z,21.78
2018-07-26T00:13:43.127Z,21.66
2018-07-26T00:16:11.214Z,21.72
2018-07-26T00:18:39.307Z,21.64
2018-07-26T00:21:07.414Z,21.59
2018-07-26T00:23:35.500Z,21.53
2018-07-26T00:26:03.578Z,21.53
2018-07-26T00:28:31.675Z,21.39
2018-07-26T00:31:00.039Z,21.27
2018-07-26T00:33:28.131Z,21.26
2018-07-26T00:35:56.202Z,21.12
2018-07-26T00:38:24.313Z,21.17
2018-07-26T00:40:52.454Z,21.19
2018-07-26T00:43:20.604Z,21.14
2018-07-26T00:45:48.701Z,21.13
2018-07-26T00:48:16.790Z,21.04
2018-07-26T00:50:44.918Z,20.99
2018-07-26T00:53:13.004Z,20.93
2018-07-26T00:55:41.111Z,20.84
2018-07-26T00:58:09.994Z,20.69
2018-07-26T01:00:38.116Z,20.67
2018-07-26T01:03:06.230Z,20.67
2018-07-26T01:05:34.323Z,20.61
2018-07-26T01:08:02.502Z,20.55
2018-07-26T01:10:30.583Z,20.50
2018-07-26T01:12:58.684Z,20.43
2018-07-26T01:15:26.771Z,20.44
2018-07-26T01:17:55.075Z,20.44
2018-07-26T01:20:23.167Z,20.38
2018-07-26T01:22:51.252Z,20.37
2018-07-26T01:25:19.358Z,20.36
2018-07-26T01:27:47.442Z,20.34
2018-07-26T01:30:15.546Z,20.33
2018-07-26T01:32:43.645Z,20.35
2018-07-26T01:35:11.731Z,20.36
2018-07-26T01:37:39.835Z,20.32
2018-07-26T01:40:07.950Z,20.26
2018-07-26T01:44:45.128Z,20.22
2018-07-26T01:47:13.220Z,20.19
2018-07-26T01:49:41.547Z,20.15
2018-07-26T01:52:09.628Z,20.10
2018-07-26T01:54:37.734Z,20.06
2018-07-26T01:57:05.828Z,19.92
2018-07-26T01:59:33.940Z,19.90
2018-07-26T02:02:02.120Z,19.86
2018-07-26T02:04:30.190Z,19.80
2018-07-26T02:06:58.267Z,19.76
2018-07-26T02:09:26.361Z,19.76
2018-07-26T02:11:54.475Z,19.67
2018-07-26T02:14:28.160Z,19.62
2018-07-26T02:16:56.255Z,19.53
2018-07-26T02:19:24.325Z,19.51
2018-07-26T02:21:52.446Z,19.43
2018-07-26T02:24:20.527Z,19.37
2018-07-26T02:26:48.621Z,19.35
2018-07-26T02:29:16.717Z,19.38
2018-07-26T02:31:44.823Z,19.34
2018-07-26T02:34:12.981Z,19.32
2018-07-26T02:36:41.115Z,19.38
2018-07-26T02:39:09.962Z,19.39
2018-07-26T02:41:38.366Z,19.33
2018-07-26T02:44:06.445Z,19.37
2018-07-26T02:46:34.537Z,19.28
2018-07-26T02:49:02.608Z,19.08
2018-07-26T02:51:30.699Z,19.00
2018-07-26T02:54:06.509Z,18.90
2018-07-26T02:56:34.595Z,18.93
2018-07-26T02:59:02.685Z,18.87
2018-07-26T03:01:30.779Z,18.80
2018-07-26T03:03:58.892Z,18.74
2018-07-26T03:06:26.998Z,18.74
2018-07-26T03:08:55.178Z,18.72
2018-07-26T03:11:23.279Z,18.66
2018-07-26T03:13:51.374Z,18.60
2018-07-26T03:16:19.475Z,18.64
2018-07-26T03:18:47.569Z,18.72
2018-07-26T03:21:15.992Z,18.88
2018-07-26T03:23:44.871Z,18.88
2018-07-26T03:26:13.040Z,18.77
2018-07-26T03:28:41.115Z,18.71
2018-07-26T03:31:09.482Z,18.63
2018-07-26T03:33:37.608Z,18.54
2018-07-26T03:36:05.696Z,18.54
2018-07-26T03:38:33.802Z,18.47
2018-07-26T03:41:02.009Z,18.51
2018-07-26T03:43:30.209Z,18.50
2018-07-26T03:45:58.264Z,18.51
2018-07-26T03:48:26.352Z,18.61
2018-07-26T03:50:54.439Z,18.58
2018-07-26T03:53:22.547Z,18.47
2018-07-26T03:55:57.034Z,18.50
2018-07-26T03:58:25.110Z,18.56
2018-07-26T04:00:53.200Z,18.59
2018-07-26T04:03:21.366Z,18.47
2018-07-26T04:05:49.447Z,18.49
2018-07-26T04:08:17.514Z,18.35
2018-07-26T04:10:46.032Z,18.37
2018-07-26T04:13:14.396Z,18.28
2018-07-26T04:15:42.485Z,18.26
2018-07-26T04:18:10.571Z,18.31
2018-07-26T04:20:38.657Z,18.36
2018-07-26T04:23:06.810Z,18.46
2018-07-26T04:25:34.901Z,18.62
2018-07-26T04:28:03.400Z,18.76
2018-07-26T04:30:31.482Z,18.78
2018-07-26T04:32:59.592Z,18.96
2018-07-26T04:35:27.709Z,19.29
2018-07-26T04:37:55.818Z,19.40
2018-07-26T04:40:23.915Z,19.38
2018-07-26T04:42:52.060Z,19.21
2018-07-26T04:45:20.144Z,19.08
2018-07-26T04:47:48.219Z,19.25
2018-07-26T04:50:16.320Z,19.45
2018-07-26T04:52:44.472Z,19.50
2018-07-26T04:55:12.534Z,19.43
2018-07-26T04:57:40.624Z,19.53
2018-07-26T05:00:08.799Z,19.67
2018-07-26T05:02:37.103Z,19.78
2018-07-26T05:05:05.699Z,19.95
2018-07-26T05:07:33.803Z,20.04
2018-07-26T05:10:01.933Z,20.02
2018-07-26T05:12:30.018Z,20.06
2018-07-26T05:14:58.192Z,20.10
2018-07-26T05:17:26.295Z,20.23
2018-07-26T05:19:54.387Z,20.25
2018-07-26T05:22:22.555Z,20.29
2018-07-26T05:24:50.643Z,20.23
2018-07-26T05:27:18.891Z,20.40
2018-07-26T05:29:46.995Z,20.69
2018-07-26T05:32:15.088Z,21.21
2018-07-26T05:34:43.202Z,21.78
2018-07-26T05:37:11.303Z,22.84
2018-07-26T05:39:39.392Z,24.24
2018-07-26T05:42:07.476Z,25.89
2018-07-26T05:44:35.579Z,27.55
2018-07-26T05:47:03.669Z,28.14
2018-07-26T05:49:31.763Z,29.05
2018-07-26T05:51:59.831Z,29.75
2018-07-26T05:54:27.929Z,30.40
2018-07-26T05:56:56.014Z,31.34
2018-07-26T05:59:24.191Z,32.08
2018-07-26T06:01:52.294Z,32.90
2018-07-26T06:04:20.445Z,31.82
2018-07-26T06:06:48.530Z,29.28
2018-07-26T06:09:16.636Z,29.49
2018-07-26T06:11:44.724Z,28.84
2018-07-26T06:14:12.824Z,28.46
2018-07-26T06:16:40.909Z,29.06
2018-07-26T06:19:09.009Z,29.61
2018-07-26T06:21:37.120Z,29.82
2018-07-26T06:24:05.436Z,29.27
2018-07-26T06:26:33.523Z,29.10
2018-07-26T06:29:01.620Z,29.15
2018-07-26T06:31:29.754Z,29.22
2018-07-26T06:33:57.840Z,29.28
2018-07-26T06:36:25.962Z,28.42
2018-07-26T06:38:54.056Z,28.52
2018-07-26T06:41:22.177Z,27.96
2018-07-26T06:43:50.279Z,26.64
2018-07-26T06:46:18.454Z,26.14
2018-07-26T06:48:46.555Z,25.54
2018-07-26T06:51:14.656Z,25.14
2018-07-26T06:53:42.733Z,24.81
2018-07-26T06:56:11.136Z,24.90
2018-07-26T06:58:39.227Z,25.17
2018-07-26T07:01:07.624Z,25.23
2018-07-26T07:03:35.711Z,24.90
2018-07-26T07:06:03.856Z,25.11
2018-07-26T07:08:31.943Z,25.27
2018-07-26T07:11:00.056Z,25.51
2018-07-26T07:13:28.157Z,25.09
2018-07-26T07:15:56.250Z,25.55
2018-07-26T07:18:24.568Z,25.80
2018-07-26T07:20:53.408Z,25.99
2018-07-26T07:23:21.514Z,26.11
2018-07-26T07:25:49.610Z,25.82
2018-07-26T07:28:17.709Z,25.50
2018-07-26T07:30:45.811Z,25.47
2018-07-26T07:33:13.990Z,25.55
2018-07-26T07:35:41.979Z,25.60
2018-07-26T07:38:10.075Z,25.66
2018-07-26T07:40:38.149Z,25.70
2018-07-26T07:43:06.272Z,25.82
2018-07-26T07:45:34.358Z,25.99
2018-07-26T07:48:02.460Z,26.05
2018-07-26T07:50:30.534Z,26.33
2018-07-26T07:52:58.641Z,26.37
2018-07-26T07:55:26.716Z,26.33
2018-07-26T07:57:54.827Z,26.40
2018-07-26T08:00:22.931Z,26.44
2018-07-26T08:02:51.035Z,26.60
2018-07-26T08:05:19.143Z,26.80
2018-07-26T08:07:47.207Z,27.01
2018-07-26T08:10:15.293Z,26.75
2018-07-26T08:12:43.373Z,26.96
2018-07-26T08:15:11.769Z,27.12
2018-07-26T08:17:39.847Z,27.33
2018-07-26T08:20:09.037Z,27.35
2018-07-26T08:22:37.127Z,27.35
2018-07-26T08:25:06.343Z,27.53
2018-07-26T08:27:34.465Z,27.72
2018-07-26T08:30:02.584Z,27.67
2018-07-26T08:32:30.677Z,27.82
2018-07-26T08:34:59.248Z,27.94
2018-07-26T08:37:27.303Z,28.15
2018-07-26T08:39:55.374Z,28.24
2018-07-26T08:42:23.521Z,28.24
2018-07-26T08:44:51.559Z,28.24
2018-07-26T08:47:19.638Z,28.35
2018-07-26T08:49:47.752Z,28.22
2018-07-26T08:52:15.978Z,28.12
2018-07-26T08:54:44.251Z,28.57
2018-07-26T08:57:12.353Z,28.81
2018-07-26T08:59:40.459Z,28.75
2018-07-26T09:02:08.560Z,29.05
2018-07-26T09:04:36.657Z,29.18
2018-07-26T09:07:04.771Z,29.27
2018-07-26T09:09:32.855Z,29.18
2018-07-26T09:12:00.940Z,29.33
2018-07-26T09:14:29.040Z,29.41
2018-07-26T09:16:58.172Z,29.60
2018-07-26T09:19:26.264Z,29.57
2018-07-26T09:21:54.346Z,29.54
2018-07-26T09:24:22.741Z,29.70
2018-07-26T09:26:50.796Z,29.76
2018-07-26T09:29:18.973Z,29.91
2018-07-26T09:31:47.236Z,29.75
2018-07-26T09:34:15.396Z,29.98
2018-07-26T09:36:43.488Z,29.80
2018-07-26T09:39:16.307Z,29.56
2018-07-26T09:41:45.665Z,29.74
2018-07-26T09:44:15.105Z,29.80
2018-07-26T09:46:43.188Z,29.92
2018-07-26T09:49:11.275Z,29.88
2018-07-26T09:51:39.362Z,30.01
2018-07-26T09:54:07.576Z,30.14
2018-07-26T09:56:35.667Z,30.25
2018-07-26T09:59:03.751Z,30.06
2018-07-26T10:01:33.516Z,30.14
2018-07-26T10:04:01.634Z,30.49
2018-07-26T10:06:30.507Z,30.41
2018-07-26T10:08:58.720Z,30.40
2018-07-26T10:11:27.539Z,30.56
2018-07-26T10:13:56.158Z,30.49
2018-07-26T10:16:24.423Z,30.83
2018-07-26T10:18:52.531Z,30.66
2018-07-26T10:21:20.727Z,30.70
2018-07-26T10:23:48.822Z,30.72
2018-07-26T10:26:16.906Z,30.80
2018-07-26T10:28:45.006Z,30.94
2018-07-26T10:31:13.104Z,31.12
2018-07-26T10:33:41.207Z,30.73
2018-07-26T10:36:09.308Z,30.80
2018-07-26T10:38:37.388Z,31.11
2018-07-26T10:41:05.532Z,31.37
2018-07-26T10:43:33.627Z,31.24
2018-07-26T10:46:02.751Z,31.52
2018-07-26T10:48:31.316Z,31.54
2018-07-26T10:50:59.426Z,31.62
2018-07-26T10:53:27.525Z,31.32
2018-07-26T10:55:55.627Z,31.46
2018-07-26T10:58:23.698Z,31.24
2018-07-26T11:00:51.803Z,31.35
2018-07-26T11:03:20.087Z,31.27
2018-07-26T11:05:48.176Z,31.47
2018-07-26T11:08:16.397Z,31.39
2018-07-26T11:10:44.475Z,31.55
2018-07-26T11:13:12.571Z,31.38
2018-07-26T11:15:40.659Z,31.62
2018-07-26T11:18:08.739Z,31.33
2018-07-26T11:20:36.835Z,31.66
2018-07-26T11:23:04.937Z,31.51
2018-07-26T11:25:33.068Z,31.55
2018-07-26T11:28:01.135Z,31.53
2018-07-26T11:30:29.257Z,31.30
2018-07-26T11:32:57.336Z,31.51
2018-07-26T11:35:25.415Z,31.69
2018-07-26T11:37:53.531Z,31.69
2018-07-26T11:40:21.700Z,31.90
2018-07-26T11:42:49.868Z,31.94
2018-07-26T11:45:17.979Z,31.58
2018-07-26T11:47:46.068Z,31.47
2018-07-26T11:50:14.229Z,31.55
2018-07-26T11:52:42.252Z,31.61
2018-07-26T11:55:10.356Z,31.61
2018-07-26T11:57:38.437Z,31.55
2018-07-26T12:00:07.872Z,31.86
2018-07-26T12:02:36.274Z,32.09
2018-07-26T12:05:04.760Z,31.94
2018-07-26T12:07:32.842Z,32.27
2018-07-26T12:10:00.928Z,32.25
2018-07-26T12:12:29.026Z,32.14
2018-07-26T12:14:57.102Z,32.24
2018-07-26T12:17:25.188Z,32.08
2018-07-26T12:19:53.275Z,31.95
2018-07-26T12:22:27.949Z,32.28
2018-07-26T12:24:56.041Z,32.51
2018-07-26T12:27:29.820Z,32.32
2018-07-26T12:29:57.908Z,32.10
2018-07-26T12:32:26.012Z,32.44
2018-07-26T12:34:54.395Z,31.62
2018-07-26T12:37:22.520Z,31.43
2018-07-26T12:39:50.778Z,31.47
2018-07-26T12:42:25.728Z,31.55
2018-07-26T12:44:53.825Z,31.87
2018-07-26T12:47:22.019Z,31.99
2018-07-26T12:49:50.069Z,31.65
2018-07-26T12:52:20.839Z,31.71
2018-07-26T12:54:49.333Z,31.51
2018-07-26T12:57:17.592Z,32.07
2018-07-26T12:59:45.673Z,32.04
2018-07-26T13:02:13.793Z,31.93
2018-07-26T13:04:41.887Z,32.05
2018-07-26T13:07:10.015Z,31.93
2018-07-26T13:09:38.160Z,31.87
2018-07-26T13:12:06.307Z,32.12
2018-07-26T13:14:34.415Z,32.35
2018-07-26T13:17:02.495Z,32.50
2018-07-26T13:19:30.592Z,32.01
2018-07-26T13:21:58.684Z,32.03
2018-07-26T13:24:26.771Z,32.43
2018-07-26T13:26:54.873Z,32.30
2018-07-26T13:29:23.267Z,32.32
2018-07-26T13:31:51.356Z,32.13
2018-07-26T13:34:19.458Z,32.04
2018-07-26T13:36:47.545Z,32.13
2018-07-26T13:39:15.641Z,32.53
2018-07-26T13:41:43.748Z,32.23
2018-07-26T13:44:11.839Z,32.22
2018-07-26T13:46:39.939Z,32.46
2018-07-26T13:49:08.037Z,32.85
2018-07-26T13:51:36.142Z,33.00
2018-07-26T13:54:04.253Z,32.75
2018-07-26T13:56:38.095Z,32.47
2018-07-26T13:59:06.172Z,32.61
2018-07-26T14:01:34.263Z,32.42
2018-07-26T14:04:02.366Z,32.17
2018-07-26T14:06:30.434Z,32.45
2018-07-26T14:08:58.527Z,32.66
2018-07-26T14:11:26.635Z,32.58
2018-07-26T14:13:54.704Z,32.54
2018-07-26T14:16:22.842Z,32.73
2018-07-26T14:18:50.963Z,32.73
2018-07-26T14:21:19.119Z,32.95
2018-07-26T14:23:51.375Z,33.12
2018-07-26T14:26:19.551Z,32.94
2018-07-26T14:28:47.647Z,32.81
2018-07-26T14:31:15.730Z,32.48
2018-07-26T14:33:43.817Z,33.06
2018-07-26T14:36:11.911Z,32.71
2018-07-26T14:38:40.679Z,32.64
2018-07-26T14:41:08.813Z,32.40
2018-07-26T14:43:36.954Z,32.07
2018-07-26T14:46:04.989Z,31.70
2018-07-26T14:48:39.800Z,31.57
2018-07-26T14:51:07.893Z,31.94
2018-07-26T14:53:35.996Z,32.33
2018-07-26T14:56:04.083Z,32.58
2018-07-26T14:58:32.368Z,32.79
2018-07-26T15:01:00.600Z,32.79
2018-07-26T15:03:28.652Z,33.16
2018-07-26T15:05:56.764Z,33.11
2018-07-26T15:08:24.865Z,33.07
2018-07-26T15:10:52.971Z,32.91
2018-07-26T15:13:21.345Z,32.50
2018-07-26T15:15:49.452Z,32.05
2018-07-26T15:18:17.526Z,31.79
2018-07-26T15:20:45.737Z,31.81
2018-07-26T15:23:13.821Z,31.90
2018-07-26T15:25:41.947Z,32.22
2018-07-26T15:28:10.063Z,32.39
2018-07-26T15:30:38.152Z,32.62
2018-07-26T15:33:06.257Z,32.62
2018-07-26T15:35:34.342Z,32.60
2018-07-26T15:38:02.441Z,32.83
2018-07-26T15:40:31.341Z,32.96
2018-07-26T15:42:59.437Z,33.08
2018-07-26T15:45:27.545Z,33.15
2018-07-26T15:47:55.637Z,33.22
2018-07-26T15:50:23.739Z,33.35
2018-07-26T15:52:51.833Z,33.32
2018-07-26T15:55:19.917Z,33.44
2018-07-26T15:57:48.007Z,33.35
2018-07-26T16:00:16.102Z,33.22
2018-07-26T16:02:44.195Z,32.72
2018-07-26T16:05:13.273Z,32.84
2018-07-26T16:07:41.320Z,32.77
2018-07-26T16:10:09.880Z,32.31
2018-07-26T16:12:38.248Z,32.16
2018-07-26T16:15:08.515Z,31.99
2018-07-26T16:17:36.688Z,31.99
2018-07-26T16:20:06.668Z,32.11
2018-07-26T16:22:34.805Z,32.22
2018-07-26T16:25:02.888Z,32.35
2018-07-26T16:27:31.188Z,32.44
2018-07-26T16:29:59.310Z,32.37
2018-07-26T16:32:27.820Z,32.59
2018-07-26T16:34:55.912Z,32.62
2018-07-26T16:37:23.994Z,32.42
2018-07-26T16:39:52.120Z,32.68
2018-07-26T16:42:20.475Z,32.67
2018-07-26T16:44:48.621Z,32.75
2018-07-26T16:47:17.055Z,32.75
2018-07-26T16:49:45.146Z,32.88
2018-07-26T16:52:13.554Z,32.80
2018-07-26T16:54:41.643Z,33.03
2018-07-26T16:57:09.744Z,32.66
2018-07-26T16:59:37.850Z,32.84
2018-07-26T17:02:05.955Z,32.54
2018-07-26T17:04:34.049Z,32.57
2018-07-26T17:07:02.137Z,32.61
2018-07-26T17:09:30.221Z,32.49
2018-07-26T17:11:58.352Z,32.84
2018-07-26T17:14:26.451Z,32.91
2018-07-26T17:16:54.545Z,33.04
2018-07-26T17:19:22.629Z,33.09
2018-07-26T17:21:50.747Z,32.83
2018-07-26T17:24:18.907Z,32.76
2018-07-26T17:26:47.019Z,32.91
2018-07-26T17:29:16.757Z,32.94
2018-07-26T17:31:45.068Z,32.53
2018-07-26T17:34:13.220Z,32.32
2018-07-26T17:36:41.311Z,32.06
2018-07-26T17:39:11.227Z,31.65
2018-07-26T17:41:39.607Z,31.38
2018-07-26T17:44:07.714Z,31.23
2018-07-26T17:46:35.835Z,31.07
2018-07-26T17:49:03.937Z,30.99
2018-07-26T17:51:32.321Z,30.92
2018-07-26T17:54:00.411Z,30.85
2018-07-26T17:56:28.489Z,30.77
2018-07-26T17:58:56.585Z,30.71
2018-07-26T18:01:24.676Z,30.50
2018-07-26T18:03:52.784Z,30.38
2018-07-26T18:06:20.953Z,30.27
2018-07-26T18:08:49.040Z,30.29
2018-07-26T18:11:17.618Z,30.18
2018-07-26T18:13:45.767Z,30.18
2018-07-26T18:16:13.862Z,30.08
2018-07-26T18:18:41.960Z,30.08
2018-07-26T18:21:10.087Z,29.94
2018-07-26T18:23:38.187Z,29.73
2018-07-26T18:26:06.327Z,29.61
2018-07-26T18:28:34.430Z,29.45
2018-07-26T18:31:02.548Z,29.24
2018-07-26T18:33:30.640Z,29.12
2018-07-26T18:35:58.731Z,28.96
2018-07-26T18:38:26.859Z,28.77
2018-07-26T18:40:54.961Z,28.68
2018-07-26T18:43:23.194Z,28.61
2018-07-26T18:45:51.293Z,28.48
2018-07-26T18:48:19.629Z,28.36
2018-07-26T18:50:48.032Z,28.20
2018-07-26T18:53:16.140Z,28.06
2018-07-26T18:55:44.372Z,27.96
2018-07-26T18:58:12.489Z,27.85
2018-07-26T19:00:40.596Z,27.73
2018-07-26T19:03:08.677Z,27.66
2018-07-26T19:05:36.772Z,27.53
2018-07-26T19:08:05.596Z,27.43
2018-07-26T19:10:33.684Z,27.37
2018-07-26T19:13:01.782Z,27.30
2018-07-26T19:15:29.883Z,27.22
2018-07-26T19:17:57.996Z,27.17
2018-07-26T19:20:26.122Z,27.10
2018-07-26T19:22:54.236Z,26.97
2018-07-26T19:25:23.401Z,26.89
2018-07-26T19:27:51.509Z,26.82
2018-07-26T19:30:20.343Z,26.77
2018-07-26T19:32:48.451Z,26.72
2018-07-26T19:35:16.581Z,26.63
2018-07-26T19:37:44.656Z,26.61
2018-07-26T19:40:19.494Z,26.53
2018-07-26T19:42:47.581Z,26.47
2018-07-26T19:45:15.708Z,26.38
2018-07-26T19:47:43.813Z,26.34
2018-07-26T19:50:11.957Z,26.28
2018-07-26T19:52:40.059Z,26.22
2018-07-26T19:55:09.875Z,26.20
2018-07-26T19:57:37.975Z,26.13
2018-07-26T20:00:06.951Z,26.11
2018-07-26T20:02:36.234Z,26.02
2018-07-26T20:05:04.709Z,25.95
2018-07-26T20:07:32.789Z,25.85
2018-07-26T20:10:00.956Z,25.70
2018-07-26T20:12:29.024Z,25.59
2018-07-26T20:14:57.171Z,25.47
2018-07-26T20:17:25.328Z,25.34
2018-07-26T20:19:53.415Z,25.21
2018-07-26T20:22:22.348Z,25.10
2018-07-26T20:24:50.448Z,24.98
2018-07-26T20:27:18.520Z,24.86
2018-07-26T20:29:46.615Z,24.79
2018-07-26T20:32:14.692Z,24.68
2018-07-26T20:34:43.110Z,24.58
2018-07-26T20:37:11.227Z,24.49
2018-07-26T20:39:39.371Z,24.42
2018-07-26T20:42:07.519Z,24.35
2018-07-26T20:44:35.624Z,24.26
2018-07-26T20:47:03.782Z,24.21
2018-07-26T20:49:31.945Z,24.11
2018-07-26T20:52:00.057Z,24.03
2018-07-26T20:54:28.175Z,23.98
2018-07-26T20:56:56.292Z,23.91
2018-07-26T20:59:24.455Z,23.87
2018-07-26T21:01:52.586Z,23.80
2018-07-26T21:04:20.737Z,23.74
2018-07-26T21:06:48.875Z,23.69
2018-07-26T21:09:16.961Z,23.66
2018-07-26T21:11:45.596Z,23.64
2018-07-26T21:14:13.701Z,23.65
2018-07-26T21:16:42.099Z,23.61
2018-07-26T21:19:10.221Z,23.59
2018-07-26T21:21:38.439Z,23.55
2018-07-26T21:24:06.532Z,23.44
2018-07-26T21:26:34.631Z,23.43
2018-07-26T21:29:02.728Z,23.42
2018-07-26T21:31:33.842Z,23.27
2018-07-26T21:34:01.924Z,23.15
2018-07-26T21:36:30.045Z,23.10
2018-07-26T21:38:58.123Z,23.05
2018-07-26T21:41:26.209Z,22.93
2018-07-26T21:43:55.323Z,22.77
2018-07-26T21:46:23.517Z,22.71
2018-07-26T21:48:51.624Z,22.63
2018-07-26T21:51:19.737Z,22.52
2018-07-26T21:53:47.840Z,22.48
2018-07-26T21:56:16.088Z,22.40
2018-07-26T21:58:44.202Z,22.30
2018-07-26T22:13:11.941Z,21.81
2018-07-26T22:15:40.287Z,21.81
2018-07-26T22:18:08.493Z,21.79
2018-07-26T22:20:36.583Z,21.77
2018-07-26T22:23:04.710Z,21.63
2018-07-26T22:25:32.993Z,21.59
2018-07-26T22:28:01.100Z,21.46
2018-07-26T22:30:29.216Z,21.39
2018-07-26T22:32:57.710Z,21.34
2018-07-26T22:35:25.905Z,21.41
2018-07-26T22:37:54.332Z,21.43
2018-07-26T22:40:23.238Z,21.41
2018-07-26T22:42:51.399Z,21.35
2018-07-26T22:45:19.490Z,21.28
2018-07-26T22:47:47.632Z,21.22
2018-07-26T22:50:15.738Z,21.21
2018-07-26T22:52:43.921Z,21.26
2018-07-26T22:55:12.078Z,21.19
2018-07-26T22:57:40.191Z,21.14
2018-07-26T23:00:08.529Z,21.05
2018-07-26T23:02:36.619Z,20.91
2018-07-26T23:05:05.092Z,20.84
2018-07-26T23:07:33.220Z,20.86
2018-07-26T23:10:01.339Z,20.84
2018-07-26T23:12:29.417Z,20.82
2018-07-26T23:14:57.578Z,20.77
2018-07-26T23:17:25.948Z,20.72
2018-07-26T23:19:54.048Z,20.64
2018-07-26T23:22:22.164Z,20.58
2018-07-26T23:24:50.251Z,20.47
2018-07-26T23:27:18.372Z,20.43
2018-07-26T23:29:46.479Z,20.36
2018-07-26T23:32:14.578Z,20.36
2018-07-26T23:34:42.680Z,20.38
2018-07-26T23:37:10.785Z,20.38
2018-07-26T23:39:38.886Z,20.33
2018-07-26T23:42:06.971Z,20.27
2018-07-26T23:44:35.072Z,20.21
2018-07-26T23:47:03.158Z,20.13
2018-07-26T23:49:31.228Z,20.06
2018-07-26T23:51:59.308Z,19.98
2018-07-26T23:54:27.418Z,19.94
2018-07-26T23:56:55.494Z,19.91
2018-07-26T23:59:23.612Z,19.85
